Barachois, Canada
Current Conditions -  °F | °C
As of 9:00 PM on Sunday 25 Jan 2015 (Local Time) from CYGP Reporting Station
Light Snow Light Snow  
Wind Chill: -1°   Ceiling: 2000
Heat Index: 16°   Visibility: 8mi
Dew Point:   Wind: 18mph
Humidity: 68%   Direction: 280°W
Pressure: 29.29"   Gusts: 30mph
Location:  48.62°N, 64.28°W
Report Text: CYGP 260200Z 28016G26KT 8SM -SN DRSN OVC020 M09/M14 A2929 RMK SC8 PRESRR SLP921
Loading
Personal Weather Stations






























Interactive Weather Map New forecast layout! Learn more

10-Day Weather Forecast

Advertisements
Track Severe Weather on mobile